IkaScore Players IkaScore Alliances






Support IkaScore

Please donate to
me@ikascore.com

using Skrill
Latvia Epsilon
Ikariam players: 50
AverageTotal
Kopējais punktu skaits: 23745961 1187298031
Celtnieki: 19670755 983537771
Celtniecības līmeņi: 2919 4398195
Zinātnieki: 831012 1252334474
Pētniecības līmenis: 288 433808
Ģenerāļi: 11418 17206202
Zelts: 35951493 1797574626
Uzbrukuma punkti: 5800 8740683
Aizsardzības punkti: 7437 11207552
Tirdzniecības statistika: 3672 5533398
Resursi: 14783292 739164599
ziedot: 417102 628572113
Score vulnerability: 155399 234186777
Gold vulnerability: 7463 11247421
Population: 17564 26469229
Donations to score: 343158 517139551

Digg! Delicious! IkaScore homepage
Players - Kopējais punktu skaits
  per page  Next page >>
Rank Ikariam player Alliance Score Type Score Updated
1 Liesmu pavēlnieks Ezīcz EŽI Kopējais punktu skaits 97687667 26/03 08:31
2 Priekšnieks I-sHiNe EŽI Kopējais punktu skaits 95931928 26/03 08:31
3 FOX03 EŽI Kopējais punktu skaits 61101691 26/03 08:31
4 Admirālis Sipango EŽI Kopējais punktu skaits 59285633 26/03 08:31
5 Admirālis King Persejs ZXN Kopējais punktu skaits 55258410 26/03 08:31
6 Pirātu karalis pumba DESA Kopējais punktu skaits 52962031 26/03 08:31
Support IkaScore

Please donate to    me@ikascore.com    using Skrill
7 Karaļa Mēdosa mantzinis Larry Laffer SOG Kopējais punktu skaits 51427288 26/03 08:31
8 Dievu dzērienu servētājs Lācīc EŽI Kopējais punktu skaits 50325555 26/03 08:31
9 Marmora magnāts Patrons K15R Kopējais punktu skaits 46038405 26/03 08:31
10 Kimk EŽI Kopējais punktu skaits 45770469 26/03 08:31
11 CIPO LAT Kopējais punktu skaits 41535792 26/03 08:31
12 Smalkās mākslas meistars Dalas EŽI Kopējais punktu skaits 41033678 26/03 08:31
13 Mākslinieks sleeping_awake EŽI Kopējais punktu skaits 39116513 26/03 08:31
14 Kristāla magnāts Tūrists NEZIN Kopējais punktu skaits 37023202 26/03 08:31
15 Cricket EŽI Kopējais punktu skaits 36793405 26/03 08:31
16 zzzz new Kopējais punktu skaits 36649501 26/03 08:31
17 Senais Ezis EŽI Kopējais punktu skaits 35846781 26/03 08:31
18 Laboratorijas žurka kasuks SPARS Kopējais punktu skaits 35407028 26/03 08:31
19 klibais2 LAT Kopējais punktu skaits 34783241 26/03 08:31
20 gt99 LAT Kopējais punktu skaits 31754748 26/03 08:31
21 Leģionārs 77 Kopējais punktu skaits 31733473 26/03 08:31
22 dragoo LAT Kopējais punktu skaits 31528856 26/03 08:31
23 Giekalitis LAT Kopējais punktu skaits 31417952 26/03 08:31
24 Kaislīgs kolekcionārs Silkra Kopējais punktu skaits 30940463 26/03 08:31
25 Heņa79 Kopējais punktu skaits 30924041 26/03 08:31
26 valdisss KF P Kopējais punktu skaits 30676851 26/03 08:31
27 gt99lv LAT Kopējais punktu skaits 30269030 26/03 08:31
28 Mākslinieks Al_Cohol SPARS Kopējais punktu skaits 30009107 26/03 08:31
29 ronda P-Z Kopējais punktu skaits 29760866 26/03 08:31
30 Vēstnieks MIL ZXN Kopējais punktu skaits 29613061 26/03 08:31
31 nike air 13 Kopējais punktu skaits 28838846 26/03 08:31
32 Zelimhans PO- Kopējais punktu skaits 28608976 26/03 08:31
33 Mākslinieks KVL Mc Murss Kopējais punktu skaits 27998463 26/03 08:31
34 Predator55 NEZIN Kopējais punktu skaits 27612082 26/03 08:31
35 Vells KidLV Kopējais punktu skaits 27169871 26/03 08:31
36 Cooper NEZIN Kopējais punktu skaits 26941871 26/03 08:31
37 Apollons sezams ZXN Kopējais punktu skaits 26921381 26/03 08:31
38 bankieriic LAT Kopējais punktu skaits 26881506 26/03 08:31
39 Marmora magnāts Lord Uhtred K15R Kopējais punktu skaits 26516100 26/03 08:31
40 Chupacabra P-Z Kopējais punktu skaits 26389817 26/03 08:31
41 atonkuls Kopējais punktu skaits 26384757 26/03 08:31
42 Orkla KidLV Kopējais punktu skaits 26105917 26/03 08:31
43 Kristāla magnāts romina LAT Kopējais punktu skaits 25917444 26/03 08:31
44 Maratonists Xander SOG Kopējais punktu skaits 25780709 26/03 08:31
45 Apple Kopējais punktu skaits 25598320 26/03 08:31
46 U-Boat EŽI Kopējais punktu skaits 25555868 26/03 08:31
47 Diversants P-Z Kopējais punktu skaits 25367114 26/03 08:31
48 Sīzifs digitteks NEZIN Kopējais punktu skaits 25366824 26/03 08:31
49 Norcis Kopējais punktu skaits 25360095 26/03 08:31
50 Imperators Runcis Killroy K15R Kopējais punktu skaits 25057357 26/03 08:31
51 deepangel Kopējais punktu skaits 24234717 26/03 08:31
52 nike air P-Z Kopējais punktu skaits 24148795 26/03 08:31
53 Herkuless Lemekkins ZXN Kopējais punktu skaits 24061427 26/03 08:31
54 kristzz LAT Kopējais punktu skaits 23899703 26/03 08:31
55 Detektīvs Čaks Noriss ZXN Kopējais punktu skaits 23872975 26/03 08:31
56 Jaffa EŽI Kopējais punktu skaits 23775123 26/03 08:31
57 internal ZXN Kopējais punktu skaits 23754065 26/03 08:31
58 Runcis Draxo K15R Kopējais punktu skaits 23646131 26/03 08:31
59 naudigais KidLV Kopējais punktu skaits 23513436 26/03 08:31
60 Jurka Kopējais punktu skaits 23099099 26/03 08:31
61 rondaa LAT Kopējais punktu skaits 23069552 26/03 08:31
62 Imperators Trencis DESA Kopējais punktu skaits 22539535 26/03 08:31
63 dragn P-Z Kopējais punktu skaits 22491059 26/03 08:31
64 123 123e Kopējais punktu skaits 22217009 26/03 08:31
65 Inesus LAT Kopējais punktu skaits 22209270 26/03 08:31
66 Kaupo P-Z Kopējais punktu skaits 22193490 26/03 08:31
67 Melnā tirgus karalis LiFe NEZIN Kopējais punktu skaits 21695037 26/03 08:31
68 Gubernators Runcis TulikDew ZXN Kopējais punktu skaits 21663493 26/03 08:31
69 SMārtiņš LVS- Kopējais punktu skaits 21425802 26/03 08:31
70 -Edgars- RedS Kopējais punktu skaits 21211095 26/03 08:31
71 Apollons -RīdžA- NEZIN Kopējais punktu skaits 21019077 26/03 08:31
72 zāļuks LAT Kopējais punktu skaits 20812956 26/03 08:31
73 čingishans_D P-Z Kopējais punktu skaits 20702558 26/03 08:31
74 Rols PO- Kopējais punktu skaits 20691713 26/03 08:31
75 Jasons NEZIN Kopējais punktu skaits 20671392 26/03 08:31
76 janisz Kopējais punktu skaits 20658606 26/03 08:31
77 Dievu dzērienu servētājs jaudigais NEZIN Kopējais punktu skaits 20335171 26/03 08:31
78 Čingishans KidLV Kopējais punktu skaits 20247737 26/03 08:31
79 Ziloņkaula torņa sargs wilsis EŽI Kopējais punktu skaits 20230041 26/03 08:31
80 Pirātu kapteinis IVARS97 Z P Kopējais punktu skaits 20063031 26/03 08:31
81 chikago ZXN Kopējais punktu skaits 19887409 26/03 08:31
82 Čingishans_G Kopējais punktu skaits 19875974 26/03 08:31
83 Mākslinieks Her0 NEZIN Kopējais punktu skaits 19608925 26/03 08:31
84 Runcis Paradox K15R Kopējais punktu skaits 19264979 26/03 08:31
85 Legacy -FX- Kopējais punktu skaits 19112644 26/03 08:31
86 ZARNASKUNGS -AHA- Kopējais punktu skaits 19047575 26/03 08:31
87 Gubernators Amun-Ra LAT Kopējais punktu skaits 19040277 26/03 08:31
88 Mākslinieks fuks LAT Kopējais punktu skaits 19019688 26/03 08:31
89 Klaids PO- Kopējais punktu skaits 18999462 26/03 08:31
90 Marmora magnāts drink_it RedS Kopējais punktu skaits 18896171 26/03 08:31
91 Karaļa Mēdosa mantzinis Lucifer ZXN Kopējais punktu skaits 18742686 26/03 08:31
92 Čingishans_B KidLV Kopējais punktu skaits 18654330 26/03 08:31
93 Patrons exit Kat Kopējais punktu skaits 18500140 26/03 08:31
94 kukers123 LAT Kopējais punktu skaits 18463164 26/03 08:31
95 Podi LAT Kopējais punktu skaits 18328968 26/03 08:31
96 kukers P-Z Kopējais punktu skaits 18296444 26/03 08:31
97 Ozolss LAT Kopējais punktu skaits 18220140 26/03 08:31
98 Vēstnieks Tihomir KidLV Kopējais punktu skaits 18081219 26/03 08:31
99 agucis191 LVS- Kopējais punktu skaits 17748378 26/03 08:31
100 vkakis D-H Kopējais punktu skaits 17608894 26/03 08:31
  per page  Next page >>

Copyright © 2010 IkaScore.com All Rights Reserved | Disclaimer